Time;durP1;ratioP1;P1;durP2;ratioP2;P2;SDS_P1;SDS_P2;PMS_P1;PMS_P2;Temp;Humidity;BMP_temperature;BMP_pressure;BME280_temperature;BME280_humidity;BME280_pressure;Samples;Min_cycle;Max_cycle;Signal;HPM_P1;HPM_P2
2023/06/30 00:00:15;;;;;;;8.15;5.42;;;;;;;16.98;71.45;99425.06;1767334;81;21370;-56
2023/06/30 00:03:25;;;;;;;6.90;5.22;;;;;;;16.96;71.55;99420.30;1767314;80;21323;-57
2023/06/30 00:06:31;;;;;;;8.33;5.28;;;;;;;16.92;71.52;99417.73;1767181;80;21717;-57
2023/06/30 00:09:39;;;;;;;8.48;5.40;;;;;;;16.87;71.49;99413.45;1767173;81;21552;-58
2023/06/30 00:12:45;;;;;;;6.92;5.40;;;;;;;16.81;71.45;99407.52;1760925;80;21190;-56
2023/06/30 00:15:50;;;;;;;6.75;5.10;;;;;;;16.76;71.56;99408.77;1740210;81;21345;-57
2023/06/30 00:18:56;;;;;;;8.73;5.80;;;;;;;16.73;71.72;99411.45;1736257;81;21368;-56
2023/06/30 00:22:04;;;;;;;9.68;5.97;;;;;;;16.68;71.84;99405.80;1748560;81;21362;-56
2023/06/30 00:25:12;;;;;;;6.78;5.75;;;;;;;16.68;71.96;99411.88;1744821;80;21384;-56
2023/06/30 00:28:17;;;;;;;7.40;5.55;;;;;;;16.64;71.99;99405.98;1745975;81;21855;-56
2023/06/30 00:31:24;;;;;;;9.13;6.17;;;;;;;16.60;72.01;99403.94;1745764;81;21380;-56
2023/06/30 00:34:30;;;;;;;8.85;6.20;;;;;;;16.57;72.11;99403.03;1746696;81;21961;-58
2023/06/30 00:37:40;;;;;;;7.85;6.22;;;;;;;16.54;72.20;99397.42;1739404;80;21349;-57
2023/06/30 00:40:48;;;;;;;12.55;5.78;;;;;;;16.52;72.30;99402.91;1741667;81;21859;-57
2023/06/30 00:43:55;;;;;;;7.22;5.78;;;;;;;16.50;72.43;99402.29;1749479;80;21984;-55
2023/06/30 00:47:02;;;;;;;7.67;5.80;;;;;;;16.48;72.56;99414.11;1744138;81;21369;-57
2023/06/30 00:50:08;;;;;;;13.03;6.47;;;;;;;16.46;72.58;99414.34;1743382;81;21403;-57
2023/06/30 00:53:15;;;;;;;12.43;6.33;;;;;;;16.43;72.60;99414.27;1738540;81;21187;-57
2023/06/30 00:56:21;;;;;;;12.03;6.37;;;;;;;16.40;72.68;99418.89;1743513;81;21882;-58
2023/06/30 00:59:29;;;;;;;9.25;6.12;;;;;;;16.39;72.72;99432.94;1738488;81;21692;-58
2023/06/30 01:02:36;;;;;;;8.05;6.15;;;;;;;16.35;72.74;99422.89;1744109;80;21312;-56
2023/06/30 01:06:08;;;;;;;8.30;5.70;;;;;;;16.30;72.85;99428.27;1736328;81;21388;-58
2023/06/30 01:09:26;;;;;;;7.60;6.15;;;;;;;16.28;72.90;99426.28;1738604;81;21218;-57
2023/06/30 01:12:32;;;;;;;14.45;6.53;;;;;;;16.25;73.01;99428.13;1743098;81;21215;-57
2023/06/30 01:15:38;;;;;;;8.60;6.22;;;;;;;16.21;73.08;99418.66;1749263;78;21357;-57
2023/06/30 01:18:45;;;;;;;10.53;6.20;;;;;;;16.18;73.15;99418.27;1749438;81;21870;-58
2023/06/30 01:21:52;;;;;;;9.68;6.37;;;;;;;16.14;73.21;99429.50;1736409;81;21346;-58
2023/06/30 01:25:01;;;;;;;7.45;5.90;;;;;;;16.12;73.30;99427.50;1738915;81;21353;-56
2023/06/30 01:28:07;;;;;;;10.03;6.72;;;;;;;16.07;73.36;99430.97;1738827;81;21396;-57
2023/06/30 01:31:14;;;;;;;7.90;6.25;;;;;;;16.05;73.43;99429.50;1748616;80;21349;-57
2023/06/30 01:34:21;;;;;;;7.55;5.97;;;;;;;16.01;73.49;99432.45;1741456;81;21349;-57
2023/06/30 01:37:27;;;;;;;7.90;6.80;;;;;;;15.99;73.56;99431.83;1739543;81;21358;-56
2023/06/30 01:40:33;;;;;;;9.00;6.92;;;;;;;15.96;73.58;99437.29;1730152;82;21929;-56
2023/06/30 01:43:40;;;;;;;9.03;6.72;;;;;;;15.92;73.65;99440.19;1735770;82;21356;-57
2023/06/30 01:46:46;;;;;;;8.30;6.53;;;;;;;15.91;73.73;99436.28;1736614;82;21930;-56
2023/06/30 01:49:53;;;;;;;13.58;6.72;;;;;;;15.87;73.79;99427.63;1737942;81;21368;-57
2023/06/30 01:53:02;;;;;;;11.57;6.97;;;;;;;15.84;73.82;99436.93;1749788;81;21392;-57
2023/06/30 01:56:07;;;;;;;10.23;6.85;;;;;;;15.81;73.88;99441.54;1736644;81;21269;-56
2023/06/30 01:59:15;;;;;;;8.28;6.35;;;;;;;15.78;73.96;99441.45;1741227;81;21212;-57
2023/06/30 02:02:22;;;;;;;11.12;7.30;;;;;;;15.77;73.96;99448.05;1750121;81;21373;-57
2023/06/30 02:05:28;;;;;;;9.98;6.37;;;;;;;15.73;74.00;99437.16;1743842;81;21416;-58
2023/06/30 02:08:35;;;;;;;7.65;5.95;;;;;;;15.73;74.12;99431.64;1744936;81;21349;-57
2023/06/30 02:11:42;;;;;;;10.18;7.17;;;;;;;15.73;74.15;99438.53;1742894;81;21243;-56
2023/06/30 02:14:50;;;;;;;10.53;6.83;;;;;;;15.71;74.21;99436.57;1747554;80;21195;-57
2023/06/30 02:17:58;;;;;;;10.00;7.60;;;;;;;15.72;74.27;99427.73;1770915;79;21355;-57
2023/06/30 02:21:05;;;;;;;9.03;6.65;;;;;;;15.70;74.34;99427.97;1770773;80;21291;-57
2023/06/30 02:24:12;;;;;;;10.20;6.85;;;;;;;15.71;74.42;99432.96;1770599;80;21296;-58
2023/06/30 02:27:18;;;;;;;10.40;6.85;;;;;;;15.73;74.54;99426.12;1770709;79;21351;-57
2023/06/30 02:30:24;;;;;;;10.40;6.90;;;;;;;15.75;74.60;99430.88;1770708;80;21213;-58
2023/06/30 02:33:31;;;;;;;10.32;6.53;;;;;;;15.79;74.66;99430.70;1763665;81;21320;-55
2023/06/30 02:36:38;;;;;;;8.40;7.10;;;;;;;15.81;74.67;99425.80;1794638;79;21359;-58
2023/06/30 02:39:45;;;;;;;11.78;7.62;;;;;;;15.85;74.72;99424.28;1801746;79;21347;-57
2023/06/30 02:42:50;;;;;;;10.82;6.85;;;;;;;15.88;74.79;99426.57;1802116;78;21344;-58
2023/06/30 02:45:56;;;;;;;8.70;6.72;;;;;;;15.91;74.86;99429.39;1802096;79;21379;-57
2023/06/30 02:49:03;;;;;;;10.28;6.25;;;;;;;15.93;74.91;99426.72;1802189;79;21839;-57
2023/06/30 02:52:11;;;;;;;9.90;6.30;;;;;;;15.98;75.01;99432.35;1801875;79;21343;-57
2023/06/30 02:55:17;;;;;;;7.75;6.62;;;;;;;16.03;75.08;99435.81;1802400;79;21789;-58
2023/06/30 02:58:24;;;;;;;10.43;6.55;;;;;;;16.08;75.12;99434.02;1802036;79;21312;-57
2023/06/30 03:01:31;;;;;;;9.25;6.42;;;;;;;16.13;75.17;99431.94;1802450;79;21327;-57
2023/06/30 03:04:37;;;;;;;15.13;6.50;;;;;;;16.18;75.24;99432.94;1802045;79;21389;-55
2023/06/30 03:07:44;;;;;;;8.45;6.50;;;;;;;16.26;75.27;99447.80;1802275;79;21316;-59
2023/06/30 03:10:52;;;;;;;10.53;6.47;;;;;;;16.32;75.33;99447.38;1802714;79;21331;-55
2023/06/30 03:13:59;;;;;;;10.20;6.58;;;;;;;16.37;75.35;99448.36;1802011;79;21394;-57
2023/06/30 03:17:07;;;;;;;9.58;6.70;;;;;;;16.43;75.36;99447.41;1802398;78;21878;-59
2023/06/30 03:20:15;;;;;;;10.50;7.22;;;;;;;16.49;75.40;99446.20;1802185;79;21457;-64
2023/06/30 03:23:22;;;;;;;10.03;6.60;;;;;;;16.53;75.40;99441.88;1795331;79;21339;-61
2023/06/30 03:26:28;;;;;;;10.28;6.85;;;;;;;16.57;75.44;99441.16;1802401;79;21339;-60
2023/06/30 03:29:38;;;;;;;8.63;6.50;;;;;;;16.62;75.44;99450.14;1802754;79;21347;-60
2023/06/30 03:32:45;;;;;;;10.48;6.67;;;;;;;16.62;75.46;99444.05;1802468;79;21860;-62
2023/06/30 03:35:53;;;;;;;7.30;6.55;;;;;;;16.66;75.51;99448.05;1802124;78;21888;-65
2023/06/30 03:38:59;;;;;;;8.13;6.70;;;;;;;16.71;75.52;99445.95;1802323;79;21367;-63
2023/06/30 03:42:06;;;;;;;12.80;7.33;;;;;;;16.72;75.47;99442.09;1802420;79;21410;-61
2023/06/30 03:45:15;;;;;;;10.78;6.58;;;;;;;16.70;75.47;99438.75;1802384;78;22170;-61
2023/06/30 03:48:23;;;;;;;8.73;6.22;;;;;;;16.71;75.55;99452.33;1802235;79;21872;-63
2023/06/30 03:51:28;;;;;;;9.60;7.08;;;;;;;16.76;75.66;99440.55;1802283;79;21319;-64
2023/06/30 03:54:35;;;;;;;8.80;6.47;;;;;;;16.86;75.75;99447.69;1802423;79;21391;-60
2023/06/30 03:57:41;;;;;;;8.03;6.83;;;;;;;16.95;75.80;99437.42;1804000;77;21417;-60
2023/06/30 04:00:48;;;;;;;8.50;6.65;;;;;;;17.04;75.84;99435.16;1802407;79;21718;-60
2023/06/30 04:03:55;;;;;;;8.48;6.40;;;;;;;17.10;75.84;99436.42;1801065;78;21766;-61
2023/06/30 04:07:03;;;;;;;10.13;6.47;;;;;;;17.20;75.89;99437.20;1802255;79;21834;-60
2023/06/30 04:10:09;;;;;;;9.28;6.83;;;;;;;17.30;75.93;99429.14;1802085;79;21386;-64
2023/06/30 04:13:17;;;;;;;9.08;7.58;;;;;;;17.37;75.87;99433.45;1802184;79;21304;-62
2023/06/30 04:16:22;;;;;;;11.88;8.18;;;;;;;17.41;75.82;99437.97;1801955;79;21380;-62
2023/06/30 04:19:29;;;;;;;12.45;8.28;;;;;;;17.45;75.77;99441.42;1801407;79;21312;-61
2023/06/30 04:22:36;;;;;;;12.68;8.70;;;;;;;17.52;75.78;99442.11;1802570;79;21809;-64
2023/06/30 04:25:42;;;;;;;9.88;8.88;;;;;;;17.62;75.83;99452.02;1802728;79;21407;-62
2023/06/30 04:28:48;;;;;;;11.48;9.63;;;;;;;17.69;75.84;99451.36;1802046;79;21382;-62
2023/06/30 04:31:55;;;;;;;13.32;10.05;;;;;;;17.78;75.83;99453.19;1801999;79;21267;-62
2023/06/30 04:35:03;;;;;;;12.55;10.05;;;;;;;17.84;75.72;99454.97;1802094;79;21357;-63
2023/06/30 04:38:10;;;;;;;15.20;9.48;;;;;;;17.85;75.58;99466.36;1802306;79;21367;-62
2023/06/30 04:41:16;;;;;;;11.75;8.88;;;;;;;17.88;75.48;99458.41;1802223;79;21347;-64
2023/06/30 04:44:23;;;;;;;11.33;10.18;;;;;;;17.96;75.61;99460.48;1802093;79;21339;-62
2023/06/30 04:47:29;;;;;;;13.30;10.28;;;;;;;18.03;75.46;99461.19;1802238;79;21371;-60
2023/06/30 04:50:35;;;;;;;11.60;9.80;;;;;;;18.10;75.44;99451.64;1802072;79;21375;-64
2023/06/30 04:53:43;;;;;;;11.35;10.23;;;;;;;18.18;75.42;99453.17;1780281;78;21368;-60
2023/06/30 04:56:49;;;;;;;13.78;10.18;;;;;;;18.20;75.34;99446.84;1791005;79;21359;-60
2023/06/30 04:59:55;;;;;;;12.90;11.48;;;;;;;18.20;75.30;99448.23;1770472;79;21228;-61
2023/06/30 05:03:02;;;;;;;12.47;10.82;;;;;;;18.23;75.39;99445.81;1779457;79;21224;-63
2023/06/30 05:06:08;;;;;;;12.60;11.33;;;;;;;18.30;75.40;99454.80;1801054;79;21359;-61
2023/06/30 05:09:14;;;;;;;14.75;12.25;;;;;;;18.33;75.39;99455.68;1786904;79;21358;-61
2023/06/30 05:12:20;;;;;;;12.03;10.65;;;;;;;18.39;75.47;99468.60;1781264;79;21350;-62
2023/06/30 05:15:27;;;;;;;11.85;10.45;;;;;;;18.44;75.37;99470.06;1769396;79;21217;-60
2023/06/30 05:18:34;;;;;;;14.63;10.70;;;;;;;18.51;75.36;99472.14;1768351;79;21244;-60
2023/06/30 05:21:39;;;;;;;13.70;10.55;;;;;;;18.67;75.44;99469.95;1773614;79;21252;-61
2023/06/30 05:24:47;;;;;;;10.90;9.80;;;;;;;18.88;75.51;99473.38;1796210;78;21343;-64
2023/06/30 05:27:54;;;;;;;13.05;10.18;;;;;;;18.99;75.26;99482.70;1794693;79;21213;-59
2023/06/30 05:31:00;;;;;;;14.80;10.15;;;;;;;19.12;75.15;99489.31;1801479;79;21343;-61
2023/06/30 05:34:09;;;;;;;9.85;8.50;;;;;;;19.18;75.06;99484.98;1792613;79;21873;-57
2023/06/30 05:37:15;;;;;;;11.45;9.90;;;;;;;19.22;74.99;99494.46;1774352;79;21244;-56
2023/06/30 05:40:22;;;;;;;11.97;9.98;;;;;;;19.20;74.78;99495.25;1770133;80;21213;-59
2023/06/30 05:43:28;;;;;;;11.18;9.30;;;;;;;19.17;74.57;99497.15;1769248;80;21192;-58
2023/06/30 05:46:34;;;;;;;11.30;9.88;;;;;;;19.09;74.53;99496.75;1761053;80;21741;-60
2023/06/30 05:49:41;;;;;;;11.75;9.90;;;;;;;19.06;74.69;99498.08;1769613;80;21201;-59
2023/06/30 05:52:48;;;;;;;10.25;9.15;;;;;;;19.15;74.65;99504.06;1769451;80;21267;-58
2023/06/30 05:55:55;;;;;;;13.13;10.05;;;;;;;19.22;74.59;99496.38;1770474;79;21689;-59
2023/06/30 05:59:01;;;;;;;11.50;9.50;;;;;;;19.27;74.56;99487.61;1789396;79;21363;-59
2023/06/30 06:02:08;;;;;;;11.63;9.03;;;;;;;19.36;74.52;99476.11;1786346;79;21359;-62
2023/06/30 06:05:16;;;;;;;10.68;8.93;;;;;;;19.49;74.63;99472.98;1770053;80;21234;-63
2023/06/30 06:08:23;;;;;;;9.75;8.75;;;;;;;19.60;74.52;99477.59;1760450;80;21844;-62
2023/06/30 06:11:30;;;;;;;10.35;9.25;;;;;;;19.62;74.36;99473.45;1769470;80;21204;-60
2023/06/30 06:14:36;;;;;;;13.25;10.25;;;;;;;19.68;74.25;99477.15;1769157;80;21243;-62
2023/06/30 06:17:42;;;;;;;11.73;10.03;;;;;;;19.73;74.25;99473.88;1786126;79;21962;-59
2023/06/30 06:20:50;;;;;;;9.68;8.15;;;;;;;19.80;74.24;99462.05;1776700;78;21220;-61
2023/06/30 06:23:55;;;;;;;12.85;8.73;;;;;;;19.80;74.21;99469.52;1790413;78;21753;-56
2023/06/30 06:27:01;;;;;;;9.13;8.18;;;;;;;19.85;74.19;99476.54;1776403;79;21503;-60
2023/06/30 06:30:06;;;;;;;12.73;8.33;;;;;;;19.82;73.98;99468.73;1768936;79;21301;-61
2023/06/30 06:33:12;;;;;;;10.10;8.55;;;;;;;19.79;73.97;99465.90;1785058;79;21343;-59
2023/06/30 06:36:18;;;;;;;9.25;8.10;;;;;;;19.76;73.95;99464.17;1786106;79;21188;-59
2023/06/30 06:39:26;;;;;;;9.83;7.75;;;;;;;19.77;74.03;99463.09;1777098;79;21236;-58
2023/06/30 06:42:31;;;;;;;10.03;7.92;;;;;;;19.83;74.11;99469.00;1785659;79;21339;-62
2023/06/30 06:45:37;;;;;;;13.55;8.38;;;;;;;19.89;74.18;99469.36;1771813;79;21207;-59
2023/06/30 06:48:44;;;;;;;11.45;7.20;;;;;;;19.96;74.23;99458.91;1780396;79;21896;-60
2023/06/30 06:51:50;;;;;;;9.48;7.10;;;;;;;20.02;74.22;99468.97;1778579;79;22118;-61
2023/06/30 06:54:54;;;;;;;9.70;7.70;;;;;;;20.08;74.17;99464.61;1787146;79;21228;-60
2023/06/30 06:58:01;;;;;;;10.38;7.35;;;;;;;20.15;74.14;99461.10;1775462;79;21849;-65
2023/06/30 07:01:08;;;;;;;13.95;10.58;;;;;;;20.17;74.13;99464.47;1783407;79;21189;-59
2023/06/30 07:04:15;;;;;;;8.75;7.60;;;;;;;20.23;74.15;99463.42;1776230;79;21426;-60
2023/06/30 07:07:21;;;;;;;9.43;7.97;;;;;;;20.27;74.12;99447.06;1773337;79;22013;-62
2023/06/30 07:10:28;;;;;;;8.15;6.95;;;;;;;20.33;74.17;99450.19;1771721;80;21769;-61
2023/06/30 07:13:33;;;;;;;7.75;6.47;;;;;;;20.34;74.09;99444.94;1786679;79;21230;-61
2023/06/30 07:16:39;;;;;;;10.65;7.53;;;;;;;20.35;73.92;99448.84;1785179;79;21364;-59
2023/06/30 07:19:46;;;;;;;10.95;7.67;;;;;;;20.39;73.92;99455.54;1776506;79;21224;-62
2023/06/30 07:22:51;;;;;;;10.10;7.45;;;;;;;20.46;74.00;99451.17;1770330;80;21212;-60
2023/06/30 07:25:58;;;;;;;9.93;7.60;;;;;;;20.56;74.07;99454.91;1769549;81;21250;-61
2023/06/30 07:29:03;;;;;;;9.13;7.33;;;;;;;20.65;74.11;99458.03;1769182;79;21214;-61
2023/06/30 07:32:08;;;;;;;20.88;11.85;;;;;;;20.68;73.96;99450.01;1769259;81;21231;-61
2023/06/30 07:35:13;;;;;;;8.70;7.10;;;;;;;20.78;73.96;99449.27;1778956;79;21944;-60
2023/06/30 07:38:18;;;;;;;11.33;7.12;;;;;;;20.91;73.92;99447.44;1781293;79;21880;-58
2023/06/30 07:41:34;;;;;;;8.23;6.50;;;;;;;21.00;73.78;99457.54;1781884;79;21355;-55
2023/06/30 07:44:50;;;;;;;8.70;7.03;;;;;;;21.03;73.52;99447.27;1773808;79;21209;-61
2023/06/30 07:47:58;;;;;;;9.15;6.83;;;;;;;21.07;73.40;99450.67;1785193;79;21166;-54
2023/06/30 07:51:20;;;;;;;10.45;6.97;;;;;;;21.15;73.27;99451.57;1775485;79;21263;-55
2023/06/30 07:54:26;;;;;;;7.53;6.25;;;;;;;21.22;73.26;99461.91;1774614;79;21177;-54
2023/06/30 07:57:34;;;;;;;8.33;6.22;;;;;;;21.33;73.10;99444.70;1777094;79;21196;-56
2023/06/30 08:00:40;;;;;;;6.65;5.67;;;;;;;21.37;72.89;99448.11;1788424;79;21276;-54
2023/06/30 08:03:48;;;;;;;7.00;6.30;;;;;;;21.46;72.87;99453.45;1797735;78;21601;-55
2023/06/30 08:06:55;;;;;;;7.95;6.00;;;;;;;21.57;72.88;99451.55;1792848;79;21169;-54
2023/06/30 08:10:02;;;;;;;9.38;6.37;;;;;;;21.67;72.70;99444.66;1713654;81;21518;-56
2023/06/30 08:13:09;;;;;;;11.60;8.90;;;;;;;21.76;72.64;99443.05;1719930;82;21174;-54
2023/06/30 08:16:15;;;;;;;10.98;7.30;;;;;;;21.88;72.54;99446.47;1739239;81;21168;-55
2023/06/30 08:19:20;;;;;;;9.45;6.58;;;;;;;22.05;72.43;99446.55;1726313;82;21233;-55
2023/06/30 08:22:27;;;;;;;9.38;6.17;;;;;;;22.16;72.24;99446.87;1737195;81;21213;-55
2023/06/30 08:25:34;;;;;;;6.55;5.70;;;;;;;22.26;72.02;99445.22;1724322;82;21560;-57
2023/06/30 08:28:43;;;;;;;8.63;5.53;;;;;;;22.37;71.87;99438.01;1780715;78;21253;-56
2023/06/30 08:31:49;;;;;;;7.05;6.00;;;;;;;22.48;71.75;99429.09;1796085;79;21746;-54
2023/06/30 08:34:58;;;;;;;13.28;8.25;;;;;;;22.58;71.61;99433.34;1781492;79;21205;-55
2023/06/30 08:38:03;;;;;;;7.50;5.92;;;;;;;22.69;71.41;99432.23;1770839;79;21204;-55
2023/06/30 08:41:09;;;;;;;7.12;5.80;;;;;;;22.80;71.19;99435.31;1782889;79;21239;-55
2023/06/30 08:44:14;;;;;;;8.63;6.12;;;;;;;22.83;70.95;99435.60;1762663;80;21205;-56
2023/06/30 08:47:19;;;;;;;8.35;6.17;;;;;;;22.84;70.72;99436.42;1771076;79;21382;-57
2023/06/30 08:50:28;;;;;;;7.47;5.90;;;;;;;22.76;70.39;99436.97;1771708;79;21209;-55
2023/06/30 08:53:33;;;;;;;7.22;5.47;;;;;;;22.71;70.20;99438.36;1773607;79;21197;-57
2023/06/30 08:56:44;;;;;;;9.55;5.92;;;;;;;22.76;70.12;99439.76;1779051;79;21413;-56
2023/06/30 08:59:51;;;;;;;7.90;5.85;;;;;;;22.76;70.00;99428.59;1783580;79;21256;-53
2023/06/30 09:02:56;;;;;;;6.60;5.72;;;;;;;22.85;69.96;99422.18;1779932;79;21173;-55
2023/06/30 09:06:05;;;;;;;8.85;5.70;;;;;;;23.03;69.93;99420.78;1800492;79;21370;-53
2023/06/30 09:09:21;;;;;;;8.93;5.97;;;;;;;23.13;69.69;99420.24;1780532;79;21193;-55
2023/06/30 09:12:24;;;;;;;7.30;5.97;;;;;;;23.21;69.40;99423.83;1769800;80;21809;-55
2023/06/30 09:15:30;;;;;;;11.68;6.25;;;;;;;23.24;69.11;99416.87;1785121;78;21189;-56
2023/06/30 09:18:35;;;;;;;8.50;5.25;;;;;;;23.31;68.92;99430.00;1780894;79;21739;-54
2023/06/30 09:21:42;;;;;;;8.83;5.58;;;;;;;23.32;68.73;99418.57;1778185;78;21844;-56
2023/06/30 09:24:49;;;;;;;7.83;5.08;;;;;;;23.32;68.46;99419.13;1767045;80;21205;-55
2023/06/30 09:27:56;;;;;;;7.55;5.37;;;;;;;23.24;68.23;99433.62;1767909;81;21753;-55
2023/06/30 09:31:05;;;;;;;6.60;5.22;;;;;;;23.30;68.16;99429.19;1769409;81;21696;-58
2023/06/30 09:34:20;;;;;;;9.25;5.47;;;;;;;23.41;68.12;99432.23;1776453;79;21196;-56
2023/06/30 09:37:26;;;;;;;5.95;5.20;;;;;;;23.53;68.02;99439.74;1796518;79;21260;-58
2023/06/30 09:40:34;;;;;;;6.20;5.37;;;;;;;23.59;67.70;99418.23;1774534;79;21189;-56
2023/06/30 09:43:41;;;;;;;7.83;5.58;;;;;;;23.71;67.59;99408.95;1768845;80;21228;-55
2023/06/30 09:47:00;;;;;;;10.53;5.58;;;;;;;23.86;67.42;99415.05;1743425;80;21229;-57
2023/06/30 09:50:06;;;;;;;8.30;4.92;;;;;;;23.99;67.41;99423.69;1769322;80;21208;-59
2023/06/30 09:53:14;;;;;;;5.60;5.03;;;;;;;24.06;67.12;99410.79;1768976;80;21193;-61
2023/06/30 09:56:29;;;;;;;8.23;6.75;;;;;;;24.13;66.88;99394.55;1800910;79;21348;-59
2023/06/30 09:59:35;;;;;;;8.40;5.67;;;;;;;24.30;66.60;99395.85;1771782;79;21239;-62
2023/06/30 10:02:40;;;;;;;8.68;5.50;;;;;;;24.31;66.21;99400.31;1767309;79;21177;-54
2023/06/30 10:05:49;;;;;;;7.15;5.65;;;;;;;24.26;65.89;99396.72;1769097;79;21623;-52
2023/06/30 10:08:58;;;;;;;9.28;5.33;;;;;;;24.24;65.70;99401.20;1780642;79;21208;-56
2023/06/30 10:12:06;;;;;;;10.70;6.47;;;;;;;24.28;65.63;99404.23;1784665;79;21745;-57
2023/06/30 10:15:14;;;;;;;7.22;5.62;;;;;;;24.37;65.45;99407.54;1768699;80;21200;-56
2023/06/30 10:18:22;;;;;;;7.15;5.65;;;;;;;24.53;65.37;99396.52;1771188;79;21240;-61
2023/06/30 10:21:29;;;;;;;6.90;5.58;;;;;;;24.72;65.33;99398.13;1787295;79;21196;-58
2023/06/30 10:24:37;;;;;;;7.62;5.60;;;;;;;24.81;64.84;99399.16;1762756;79;21782;-61
2023/06/30 10:27:46;;;;;;;5.95;5.05;;;;;;;24.84;64.46;99392.41;1795437;79;21722;-58
2023/06/30 10:30:58;;;;;;;8.60;5.90;;;;;;;24.89;64.26;99378.93;1782839;79;21201;-58
2023/06/30 10:34:05;;;;;;;8.95;6.60;;;;;;;24.96;64.04;99392.86;1775324;79;21209;-58
2023/06/30 10:37:12;;;;;;;6.65;5.95;;;;;;;25.00;63.77;99381.36;1776165;79;21706;-57
2023/06/30 10:40:31;;;;;;;10.60;6.65;;;;;;;25.02;63.51;99381.06;1725523;82;21189;-57
2023/06/30 10:43:41;;;;;;;7.35;5.35;;;;;;;25.07;63.23;99398.37;1719176;83;21421;-54
2023/06/30 10:46:59;;;;;;;11.73;5.92;;;;;;;25.16;62.96;99381.20;1733098;82;21664;-53
2023/06/30 10:50:11;;;;;;;9.13;4.90;;;;;;;25.27;62.68;99386.41;1722723;82;21361;-59
2023/06/30 10:53:18;;;;;;;10.72;5.10;;;;;;;25.35;62.38;99389.16;1706511;82;21201;-59
2023/06/30 10:56:23;;;;;;;7.85;5.08;;;;;;;25.33;61.96;99374.56;1690432;83;21215;-56
2023/06/30 10:59:31;;;;;;;5.70;5.10;;;;;;;25.42;61.80;99379.85;1719404;82;21235;-60
2023/06/30 11:02:41;;;;;;;7.45;4.83;;;;;;;25.38;61.43;99382.41;1727545;82;21276;-60
2023/06/30 11:05:48;;;;;;;6.35;5.12;;;;;;;25.47;61.44;99375.56;1783057;79;21287;-58
2023/06/30 11:09:13;;;;;;;6.83;5.08;;;;;;;25.69;61.29;99384.31;1770133;78;21213;-57
2023/06/30 11:12:18;;;;;;;9.55;4.65;;;;;;;25.88;60.90;99372.54;1791765;79;21610;-58
2023/06/30 11:15:38;;;;;;;8.78;4.90;;;;;;;26.13;60.71;99372.27;1753223;79;21402;-59
2023/06/30 11:18:48;;;;;;;5.37;4.55;;;;;;;26.24;60.20;99363.97;1783731;79;21197;-58
2023/06/30 11:22:16;;;;;;;6.72;4.95;;;;;;;26.35;59.89;99371.09;1791082;78;21193;-58
2023/06/30 11:25:22;;;;;;;6.35;5.12;;;;;;;26.40;59.55;99359.80;1768694;80;21393;-59
2023/06/30 11:28:28;;;;;;;5.80;4.53;;;;;;;26.52;59.32;99348.94;1768771;81;21213;-59
2023/06/30 11:31:34;;;;;;;5.62;4.97;;;;;;;26.71;59.25;99346.13;1768947;80;21169;-58
2023/06/30 11:34:41;;;;;;;5.25;4.55;;;;;;;26.86;58.85;99362.73;1769040;81;22006;-60
2023/06/30 11:37:47;;;;;;;5.92;4.70;;;;;;;26.87;58.27;99352.59;1797975;79;21348;-59
2023/06/30 11:40:56;;;;;;;8.93;4.55;;;;;;;26.97;57.94;99365.62;1791898;79;21227;-58
2023/06/30 11:44:04;;;;;;;6.15;4.37;;;;;;;26.99;57.44;99352.93;1799310;79;21232;-60
2023/06/30 11:47:09;;;;;;;9.28;5.40;;;;;;;26.94;56.95;99355.02;1718231;82;21204;-56
2023/06/30 11:50:16;;;;;;;5.62;4.80;;;;;;;26.93;56.80;99340.69;1725070;81;21204;-59
2023/06/30 11:53:22;;;;;;;7.87;4.87;;;;;;;27.03;56.52;99344.17;1738440;81;22084;-55
2023/06/30 11:56:29;;;;;;;7.90;4.85;;;;;;;26.94;56.06;99343.19;1722745;82;21217;-56
2023/06/30 11:59:36;;;;;;;12.80;5.25;;;;;;;26.76;55.58;99334.25;1722727;81;21216;-56
2023/06/30 12:02:41;;;;;;;9.03;5.10;;;;;;;26.56;55.34;99334.53;1720537;82;21538;-56
2023/06/30 12:05:49;;;;;;;5.90;4.70;;;;;;;26.27;54.87;99353.53;1753453;81;21796;-57
2023/06/30 12:08:57;;;;;;;7.70;5.03;;;;;;;25.84;54.59;99372.89;1734770;82;21871;-53
2023/06/30 12:12:03;;;;;;;10.43;6.83;;;;;;;25.27;54.44;99394.81;1732124;82;21192;-55
2023/06/30 12:15:14;;;;;;;16.37;7.75;;;;;;;24.50;54.61;99414.45;1725953;82;21252;-58
2023/06/30 12:18:20;;;;;;;11.68;6.42;;;;;;;23.37;54.77;99406.55;1722802;82;21169;-59
2023/06/30 12:21:25;;;;;;;8.50;6.75;;;;;;;22.39;55.47;99377.77;1719948;83;21311;-56
2023/06/30 12:24:37;;;;;;;10.20;7.50;;;;;;;21.95;56.18;99368.46;1730161;81;21177;-54
2023/06/30 12:27:43;;;;;;;7.72;6.92;;;;;;;21.80;56.83;99354.47;1729800;81;21297;-54
2023/06/30 12:30:51;;;;;;;10.90;7.25;;;;;;;21.89;57.34;99346.42;1732566;83;21201;-56
2023/06/30 12:34:02;;;;;;;13.18;8.10;;;;;;;22.11;57.84;99334.48;1723233;82;21249;-56
2023/06/30 12:37:12;;;;;;;8.48;6.97;;;;;;;22.36;58.19;99328.13;1727491;81;21201;-56
2023/06/30 12:40:20;;;;;;;8.03;7.20;;;;;;;22.55;58.38;99326.48;1738773;82;21618;-55
2023/06/30 12:43:28;;;;;;;8.60;7.70;;;;;;;22.70;58.42;99323.68;1732494;82;21323;-56
2023/06/30 12:46:29;;;;;;;8.55;7.05;;;;;;;22.83;58.70;99323.11;1742122;82;21370;-55
2023/06/30 12:49:22;;;;;;;10.60;7.22;;;;;;;22.95;59.03;99320.30;1720645;82;21215;-58
2023/06/30 12:52:09;;;;;;;7.97;6.87;;;;;;;23.12;59.31;99310.23;1725475;83;21390;-58
2023/06/30 12:55:04;;;;;;;9.98;7.30;;;;;;;23.35;59.51;99311.02;1704408;83;22141;-55
2023/06/30 12:57:51;;;;;;;8.60;6.97;;;;;;;23.52;59.63;99315.14;1727781;81;21201;-56
2023/06/30 13:00:44;;;;;;;11.78;8.48;;;;;;;23.56;59.70;99312.03;1732152;81;21572;-56
2023/06/30 13:03:53;;;;;;;10.50;7.42;;;;;;;23.54;59.82;99312.05;1735864;81;21225;-58
2023/06/30 13:06:59;;;;;;;8.65;7.35;;;;;;;23.45;59.91;99306.80;1733510;81;21745;-57
2023/06/30 13:10:07;;;;;;;10.05;7.00;;;;;;;23.37;59.90;99319.38;1749924;81;21264;-56
2023/06/30 13:13:14;;;;;;;10.58;7.83;;;;;;;23.41;60.10;99347.58;1727696;82;21227;-56
2023/06/30 13:16:21;;;;;;;8.83;7.50;;;;;;;23.37;60.00;99352.08;1755396;81;21414;-58
2023/06/30 13:19:30;;;;;;;9.35;6.92;;;;;;;23.16;59.82;99354.05;1734633;81;21188;-56
2023/06/30 13:22:36;;;;;;;9.63;7.33;;;;;;;22.89;59.72;99359.66;1755250;81;21201;-56
2023/06/30 13:25:40;;;;;;;10.13;7.12;;;;;;;22.64;59.91;99360.53;1734953;82;21184;-55
2023/06/30 13:28:42;;;;;;;11.63;8.08;;;;;;;22.38;59.96;99386.68;1753970;80;21395;-55
2023/06/30 13:31:48;;;;;;;11.95;7.72;;;;;;;22.10;60.13;99427.61;1801493;79;21889;-54
2023/06/30 13:34:55;;;;;;;8.75;7.03;;;;;;;21.48;60.51;99407.22;1801269;78;21331;-53
2023/06/30 13:38:03;;;;;;;8.75;7.00;;;;;;;20.88;60.85;99390.94;1800397;79;21849;-54
2023/06/30 13:41:07;;;;;;;10.85;7.85;;;;;;;20.48;61.29;99384.48;1802011;79;21363;-53
2023/06/30 13:44:14;;;;;;;8.55;7.53;;;;;;;20.21;61.64;99398.94;1801477;79;21358;-53
2023/06/30 13:47:20;;;;;;;9.48;7.65;;;;;;;20.07;61.95;99403.74;1801754;79;21904;-55
2023/06/30 13:50:27;;;;;;;10.03;7.40;;;;;;;19.95;62.21;99412.75;1802352;79;21871;-53
2023/06/30 13:53:40;;;;;;;8.88;7.35;;;;;;;19.86;62.46;99408.23;1801807;79;21371;-55
2023/06/30 13:56:44;;;;;;;11.20;7.15;;;;;;;19.79;62.74;99405.36;1801812;79;21387;-55
2023/06/30 13:59:49;;;;;;;8.58;7.17;;;;;;;19.74;62.98;99410.84;1802398;79;21912;-55
2023/06/30 14:02:55;;;;;;;8.53;6.80;;;;;;;19.69;63.18;99406.08;1782425;79;21379;-55
2023/06/30 14:06:03;;;;;;;10.32;6.33;;;;;;;19.67;63.40;99411.04;1769811;79;21276;-55
2023/06/30 14:09:09;;;;;;;65.72;19.67;;;;;;;19.64;63.58;99416.27;1770408;80;21433;-55
2023/06/30 14:12:16;;;;;;;6.97;5.92;;;;;;;19.65;63.72;99416.54;1770536;80;21228;-55
2023/06/30 14:15:23;;;;;;;7.35;6.28;;;;;;;19.64;63.85;99414.87;1763741;81;21204;-55
2023/06/30 14:18:30;;;;;;;8.15;5.85;;;;;;;19.64;63.96;99417.11;1770065;80;21189;-53
2023/06/30 14:21:36;;;;;;;7.95;5.92;;;;;;;19.65;64.10;99407.67;1769725;80;21212;-55
2023/06/30 14:24:43;;;;;;;7.85;5.83;;;;;;;19.68;64.30;99410.50;1769211;79;21800;-55
2023/06/30 14:27:49;;;;;;;7.05;5.67;;;;;;;19.73;64.45;99398.04;1780217;79;21370;-53
2023/06/30 14:30:55;;;;;;;15.35;8.23;;;;;;;19.83;64.66;99406.51;1800955;79;21355;-54
2023/06/30 14:34:02;;;;;;;7.85;5.40;;;;;;;19.93;64.70;99399.13;1800555;78;21324;-53